DAAJ/DJG METAR and TAF weather

Enter ICAO airport designator
Station Type Date Time Source
DAAJ METAR 2021/09/25 12:00 UTC NOAA

DAAJ 251200Z 06010KT CAVOK 34/// Q1022


Station Type Date Time Source
DAAJ Decoded METAR 2021/09/25 12:00 UTC NOAA

Djanet, Algeria (DAAJ) 24-33N 009-28E 1054M
Sep 25, 2021 - 08:00 AM EDT / 2021.09.25 1200 UTC
Wind: from the ENE (060 degrees) at 12 MPH (10 KT):0
Visibility: greater than 7 mile(s):0
Temperature: 93 F (34 C)
Pressure (altimeter): 30.18 in. Hg (1022 hPa)
ob: DAAJ 251200Z 06010KT CAVOK 34/// Q1022
cycle: 12

Station Type Date Time Source
DAAJ TAF 2021/09/25 12:30 UTC NOAA

TAF DAAJ 251100Z 2512/2612 10008KT CAVOK

Example: see airport list